createdAt,value
2018-03-27T00:00:26.144Z,98684.91
2018-03-27T00:02:55.530Z,98683.08
2018-03-27T00:05:25.160Z,98686.64
2018-03-27T00:07:55.013Z,98690.84
2018-03-27T00:10:24.158Z,98692.48
2018-03-27T00:12:53.522Z,98692.23
2018-03-27T00:15:31.248Z,98691.88
2018-03-27T00:18:00.859Z,98682.98
2018-03-27T00:20:30.273Z,98689.91
2018-03-27T00:22:59.405Z,98688.58
2018-03-27T00:25:28.538Z,98689.34
2018-03-27T00:28:08.722Z,98696.13
2018-03-27T00:30:48.629Z,98694.61
2018-03-27T00:33:28.844Z,98696.42
2018-03-27T00:36:08.839Z,98685.62
2018-03-27T00:38:49.585Z,98698.19
2018-03-27T00:41:20.485Z,98699.96
2018-03-27T00:43:49.825Z,98690.09
2018-03-27T00:46:19.655Z,98695.52
2018-03-27T00:48:48.991Z,98690.69
2018-03-27T00:51:18.426Z,98705.03
2018-03-27T00:53:48.133Z,98694.94
2018-03-27T00:56:17.558Z,98705.98
2018-03-27T00:58:47.054Z,98705.70
2018-03-27T01:01:18.443Z,98708.16
2018-03-27T01:03:47.938Z,98711.36
2018-03-27T01:06:17.395Z,98702.20
2018-03-27T01:08:46.815Z,98697.37
2018-03-27T01:11:16.270Z,98701.38
2018-03-27T01:13:46.027Z,98705.78
2018-03-27T01:16:15.516Z,98704.71
2018-03-27T01:18:45.189Z,98702.69
2018-03-27T01:21:15.060Z,98699.12
2018-03-27T01:23:45.274Z,98699.50
2018-03-27T01:26:14.643Z,98697.70
2018-03-27T01:28:44.607Z,98693.17
2018-03-27T01:31:14.013Z,98693.39
2018-03-27T01:33:44.033Z,98683.94
2018-03-27T01:36:13.378Z,98681.37
2018-03-27T01:38:42.854Z,98672.88
2018-03-27T01:41:12.795Z,98676.09
2018-03-27T01:43:42.322Z,98668.81
2018-03-27T01:46:11.715Z,98663.16
2018-03-27T01:48:41.523Z,98663.05
2018-03-27T01:51:10.936Z,98665.95
2018-03-27T01:53:40.648Z,98663.93
2018-03-27T01:56:09.794Z,98665.81
2018-03-27T01:58:39.016Z,98660.73
2018-03-27T02:01:09.370Z,98663.73
2018-03-27T02:03:41.716Z,98668.48
2018-03-27T02:06:13.508Z,98660.46
2018-03-27T02:08:43.080Z,98655.16
2018-03-27T02:11:17.552Z,98657.66
2018-03-27T02:13:52.063Z,98651.70
2018-03-27T02:16:26.693Z,98657.56
2018-03-27T02:19:01.203Z,98662.81
2018-03-27T02:21:29.553Z,98664.73
2018-03-27T02:23:59.457Z,98663.48
2018-03-27T02:26:28.974Z,98662.26
2018-03-27T02:28:58.345Z,98666.34
2018-03-27T02:31:28.089Z,98665.12
2018-03-27T02:33:57.497Z,98669.45
2018-03-27T02:36:26.847Z,98655.62
2018-03-27T02:38:56.498Z,98658.63
2018-03-27T02:41:26.091Z,98661.67
2018-03-27T02:43:55.616Z,98658.63
2018-03-27T02:46:25.434Z,98654.77
2018-03-27T02:48:54.983Z,98653.09
2018-03-27T02:51:24.312Z,98658.41
2018-03-27T02:53:54.246Z,98662.48
2018-03-27T02:56:23.472Z,98664.34
2018-03-27T02:58:53.190Z,98666.44
2018-03-27T03:01:23.066Z,98663.23
2018-03-27T03:03:52.630Z,98666.73
2018-03-27T03:06:22.178Z,98661.91
2018-03-27T03:08:51.775Z,98666.78
2018-03-27T03:13:56.931Z,98666.66
2018-03-27T03:16:26.772Z,98671.45
2018-03-27T03:18:56.386Z,98669.49
2018-03-27T03:21:25.583Z,98669.91
2018-03-27T03:23:54.952Z,98675.95
2018-03-27T03:26:24.671Z,98667.63
2018-03-27T03:28:54.076Z,98673.67
2018-03-27T03:31:23.669Z,98672.02
2018-03-27T03:33:52.837Z,98671.05
2018-03-27T03:36:22.204Z,98670.12
2018-03-27T03:38:51.985Z,98675.78
2018-03-27T03:41:21.114Z,98676.20
2018-03-27T03:43:50.242Z,98671.25
2018-03-27T03:46:19.579Z,98668.72
2018-03-27T03:48:48.978Z,98673.73
2018-03-27T03:51:18.757Z,98676.69
2018-03-27T03:53:48.241Z,98678.45
2018-03-27T03:56:17.436Z,98673.48
2018-03-27T03:58:47.184Z,98667.45
2018-03-27T04:01:16.381Z,98670.55
2018-03-27T04:03:45.972Z,98667.89
2018-03-27T04:06:15.540Z,98668.33
2018-03-27T04:08:44.952Z,98666.60
2018-03-27T04:11:14.484Z,98662.16
2018-03-27T04:13:43.849Z,98659.98
2018-03-27T04:16:13.142Z,98664.81
2018-03-27T04:18:42.300Z,98665.11
2018-03-27T04:21:11.849Z,98658.15
2018-03-27T04:23:41.537Z,98664.19
2018-03-27T04:26:10.708Z,98660.94
2018-03-27T04:28:40.456Z,98659.55
2018-03-27T04:31:09.811Z,98662.59
2018-03-27T04:33:39.993Z,98663.08
2018-03-27T04:36:09.179Z,98669.02
2018-03-27T04:38:38.425Z,98660.45
2018-03-27T04:41:07.885Z,98668.89
2018-03-27T04:43:37.765Z,98671.38
2018-03-27T04:46:07.187Z,98665.62
2018-03-27T04:48:36.517Z,98666.03
2018-03-27T04:51:06.256Z,98667.32
2018-03-27T04:53:35.538Z,98664.89
2018-03-27T04:56:04.944Z,98662.55
2018-03-27T04:58:34.391Z,98673.05
2018-03-27T05:01:04.016Z,98670.52
2018-03-27T05:03:33.536Z,98670.16
2018-03-27T05:06:03.073Z,98671.59
2018-03-27T05:08:32.742Z,98665.77
2018-03-27T05:11:04.481Z,98667.98
2018-03-27T05:13:35.275Z,98663.08
2018-03-27T05:16:04.550Z,98661.16
2018-03-27T05:18:33.937Z,98658.03
2018-03-27T05:21:04.184Z,98666.52
2018-03-27T05:23:33.686Z,98666.66
2018-03-27T05:26:03.086Z,98673.73
2018-03-27T05:28:32.489Z,98674.47
2018-03-27T05:31:01.708Z,98672.52
2018-03-27T05:33:31.119Z,98673.91
2018-03-27T05:36:00.707Z,98666.80
2018-03-27T05:38:29.841Z,98665.48
2018-03-27T05:40:58.942Z,98658.83
2018-03-27T05:43:28.174Z,98663.52
2018-03-27T05:45:57.285Z,98664.27
2018-03-27T05:48:26.747Z,98658.70
2018-03-27T05:50:55.969Z,98654.73
2018-03-27T05:53:25.167Z,98657.42
2018-03-27T05:55:54.450Z,98655.70
2018-03-27T05:58:23.742Z,98665.11
2018-03-27T06:00:53.142Z,98669.13
2018-03-27T06:03:22.353Z,98665.81
2018-03-27T06:05:51.523Z,98661.17
2018-03-27T06:08:21.083Z,98668.38
2018-03-27T06:10:50.209Z,98672.09
2018-03-27T06:13:19.378Z,98667.31
2018-03-27T06:15:48.683Z,98667.96
2018-03-27T06:18:17.961Z,98664.64
2018-03-27T06:20:47.725Z,98668.27
2018-03-27T06:23:17.271Z,98667.94
2018-03-27T06:25:46.398Z,98670.80
2018-03-27T06:28:15.830Z,98670.13
2018-03-27T06:30:45.987Z,98665.58
2018-03-27T06:33:15.604Z,98672.58
2018-03-27T06:35:44.744Z,98670.04
2018-03-27T06:38:14.135Z,98669.98
2018-03-27T06:40:44.040Z,98676.77
2018-03-27T06:43:13.189Z,98671.62
2018-03-27T06:45:42.661Z,98674.10
2018-03-27T06:48:12.190Z,98677.12
2018-03-27T06:50:41.488Z,98675.39
2018-03-27T06:53:11.325Z,98663.77
2018-03-27T06:55:40.484Z,98669.95
2018-03-27T06:58:11.312Z,98664.03
2018-03-27T07:00:41.328Z,98662.88
2018-03-27T07:03:14.549Z,98665.13
2018-03-27T07:05:46.657Z,98664.70
2018-03-27T07:08:15.816Z,98668.03
2018-03-27T07:10:45.268Z,98666.05
2018-03-27T07:13:14.978Z,98665.95
2018-03-27T07:15:44.288Z,98661.87
2018-03-27T07:18:13.766Z,98663.80
2018-03-27T07:20:42.909Z,98663.41
2018-03-27T07:23:11.982Z,98670.65
2018-03-27T07:25:41.392Z,98660.97
2018-03-27T07:28:10.667Z,98659.97
2018-03-27T07:30:40.024Z,98658.34
2018-03-27T07:33:09.489Z,98661.25
2018-03-27T07:35:38.664Z,98669.20
2018-03-27T07:38:08.329Z,98668.64
2018-03-27T07:40:37.440Z,98669.80
2018-03-27T07:43:06.536Z,98667.87
2018-03-27T07:45:36.629Z,98663.27
2018-03-27T07:48:06.101Z,98662.70
2018-03-27T07:50:35.655Z,98660.30
2018-03-27T07:53:05.025Z,98660.89
2018-03-27T07:55:38.656Z,98664.36
2018-03-27T07:58:07.904Z,98661.73
2018-03-27T08:00:37.021Z,98663.33
2018-03-27T08:03:06.572Z,98663.45
2018-03-27T08:05:35.898Z,98659.71
2018-03-27T08:08:05.339Z,98660.48
2018-03-27T08:10:35.736Z,98660.43
2018-03-27T08:13:05.088Z,98659.77
2018-03-27T08:15:34.181Z,98653.93
2018-03-27T08:18:03.748Z,98651.89
2018-03-27T08:20:35.662Z,98649.27
2018-03-27T08:23:05.635Z,98658.73
2018-03-27T08:25:35.931Z,98654.17
2018-03-27T08:28:05.158Z,98647.83
2018-03-27T08:30:35.863Z,98657.50
2018-03-27T08:33:06.715Z,98654.19
2018-03-27T08:35:36.017Z,98648.04
2018-03-27T08:38:05.745Z,98651.44
2018-03-27T08:40:35.562Z,98647.52
2018-03-27T08:43:04.792Z,98646.25
2018-03-27T08:45:34.710Z,98635.86
2018-03-27T08:48:03.955Z,98633.83
2018-03-27T08:50:34.120Z,98628.21
2018-03-27T08:53:03.280Z,98629.81
2018-03-27T08:55:32.562Z,98627.21
2018-03-27T08:58:02.260Z,98616.03
2018-03-27T09:00:31.598Z,98628.49
2018-03-27T09:03:00.767Z,98619.05
2018-03-27T09:05:29.929Z,98617.68
2018-03-27T09:07:59.024Z,98613.55
2018-03-27T09:10:28.563Z,98618.55
2018-03-27T09:12:57.690Z,98614.31
2018-03-27T09:15:26.808Z,98617.59
2018-03-27T09:17:56.101Z,98622.25
2018-03-27T09:20:25.321Z,98623.30
2018-03-27T09:22:56.023Z,98625.38
2018-03-27T09:25:25.208Z,98625.16
2018-03-27T09:27:54.320Z,98620.52
2018-03-27T09:30:24.008Z,98618.62
2018-03-27T09:32:53.417Z,98618.71
2018-03-27T09:35:22.804Z,98619.97
2018-03-27T09:37:52.315Z,98607.03
2018-03-27T09:40:21.431Z,98610.74
2018-03-27T09:42:51.067Z,98613.96
2018-03-27T09:45:20.402Z,98609.06
2018-03-27T09:47:49.718Z,98606.86
2018-03-27T09:50:18.889Z,98603.06
2018-03-27T09:52:48.002Z,98607.73
2018-03-27T09:55:17.834Z,98604.95
2018-03-27T09:57:47.156Z,98600.17
2018-03-27T10:00:20.361Z,98602.30
2018-03-27T10:02:49.972Z,98595.44
2018-03-27T10:05:19.099Z,98584.30
2018-03-27T10:07:48.713Z,98587.69
2018-03-27T10:10:17.857Z,98587.38
2018-03-27T10:12:47.234Z,98583.19
2018-03-27T10:15:16.802Z,98572.87
2018-03-27T10:17:46.127Z,98578.50
2018-03-27T10:20:15.476Z,98574.44
2018-03-27T10:22:45.122Z,98569.36
2018-03-27T10:25:14.278Z,98563.99
2018-03-27T10:27:44.078Z,98573.83
2018-03-27T10:30:13.673Z,98577.65
2018-03-27T10:32:42.983Z,98571.23
2018-03-27T10:35:12.518Z,98569.64
2018-03-27T10:37:41.796Z,98567.72
2018-03-27T10:40:11.286Z,98564.59
2018-03-27T10:42:40.674Z,98558.25
2018-03-27T10:45:09.844Z,98553.46
2018-03-27T10:47:39.404Z,98551.59
2018-03-27T10:50:08.723Z,98547.27
2018-03-27T10:52:38.029Z,98544.66
2018-03-27T10:55:08.033Z,98547.53
2018-03-27T10:57:37.348Z,98546.63
2018-03-27T11:00:07.694Z,98538.45
2018-03-27T11:02:37.110Z,98541.72
2018-03-27T11:05:06.229Z,98540.64
2018-03-27T11:07:35.928Z,98526.17
2018-03-27T11:10:05.510Z,98534.00
2018-03-27T11:12:34.814Z,98526.58
2018-03-27T11:15:04.114Z,98527.62
2018-03-27T11:17:33.318Z,98524.77
2018-03-27T11:20:02.774Z,98520.06
2018-03-27T11:22:33.810Z,98523.08
2018-03-27T11:25:03.023Z,98518.31
2018-03-27T11:27:33.045Z,98513.94
2018-03-27T11:30:02.171Z,98511.12
2018-03-27T11:32:31.589Z,98503.91
2018-03-27T11:35:00.714Z,98494.41
2018-03-27T11:37:29.877Z,98495.82
2018-03-27T11:39:59.447Z,98496.39
2018-03-27T11:42:29.014Z,98500.65
2018-03-27T11:44:58.337Z,98494.09
2018-03-27T11:47:27.457Z,98491.64
2018-03-27T11:49:56.568Z,98488.98
2018-03-27T11:52:26.270Z,98483.84
2018-03-27T11:54:55.860Z,98482.16
2018-03-27T11:57:25.217Z,98474.98
2018-03-27T11:59:54.862Z,98469.08
2018-03-27T12:02:24.038Z,98462.87
2018-03-27T12:04:53.559Z,98459.69
2018-03-27T12:07:23.250Z,98461.11
2018-03-27T12:09:52.581Z,98455.31
2018-03-27T12:12:22.177Z,98451.13
2018-03-27T12:14:51.882Z,98454.90
2018-03-27T12:17:21.406Z,98448.91
2018-03-27T12:19:50.891Z,98447.88
2018-03-27T12:22:20.029Z,98446.41
2018-03-27T12:24:49.816Z,98451.28
2018-03-27T12:27:19.220Z,98440.73
2018-03-27T12:29:48.522Z,98441.60
2018-03-27T12:32:18.215Z,98429.50
2018-03-27T12:34:47.531Z,98429.48
2018-03-27T12:37:16.684Z,98424.32
2018-03-27T12:39:45.788Z,98426.73
2018-03-27T12:42:15.048Z,98419.54
2018-03-27T12:44:44.666Z,98419.09
2018-03-27T12:47:13.841Z,98402.17
2018-03-27T12:49:43.219Z,98401.98
2018-03-27T12:52:12.907Z,98400.59
2018-03-27T12:54:42.274Z,98405.65
2018-03-27T12:57:12.606Z,98406.02
2018-03-27T12:59:41.845Z,98390.55
2018-03-27T13:02:10.986Z,98398.87
2018-03-27T13:04:41.752Z,98383.98
2018-03-27T13:07:12.247Z,98392.02
2018-03-27T13:09:43.366Z,98378.26
2018-03-27T13:12:12.611Z,98373.87
2018-03-27T13:14:41.933Z,98373.75
2018-03-27T13:17:11.605Z,98366.05
2018-03-27T13:19:40.834Z,98362.98
2018-03-27T13:22:10.419Z,98353.69
2018-03-27T13:24:39.536Z,98344.27
2018-03-27T13:27:09.021Z,98346.50
2018-03-27T13:29:38.816Z,98347.47
2018-03-27T13:32:08.022Z,98347.84
2018-03-27T13:34:37.184Z,98343.77
2018-03-27T13:37:06.789Z,98346.48
2018-03-27T13:39:35.925Z,98332.64
2018-03-27T13:42:05.078Z,98331.84
2018-03-27T13:44:34.250Z,98328.31
2018-03-27T13:47:03.389Z,98317.59
2018-03-27T13:49:33.210Z,98324.09
2018-03-27T13:52:02.340Z,98318.81
2018-03-27T13:56:53.083Z,98319.24
2018-03-27T13:59:22.329Z,98317.20
2018-03-27T14:01:51.595Z,98312.30
2018-03-27T14:04:21.094Z,98311.19
2018-03-27T14:06:50.626Z,98307.39
2018-03-27T14:09:19.813Z,98310.14
2018-03-27T14:11:49.843Z,98313.38
2018-03-27T14:14:19.629Z,98309.81
2018-03-27T14:16:48.745Z,98299.89
2018-03-27T14:19:18.183Z,98297.63
2018-03-27T14:21:47.316Z,98291.45
2018-03-27T14:24:16.465Z,98284.06
2018-03-27T14:26:45.840Z,98286.99
2018-03-27T14:29:14.964Z,98278.59
2018-03-27T14:31:44.207Z,98273.89
2018-03-27T14:34:13.943Z,98268.30
2018-03-27T14:36:43.105Z,98270.20
2018-03-27T14:39:12.326Z,98262.80
2018-03-27T14:41:42.032Z,98261.10
2018-03-27T14:44:11.597Z,98263.95
2018-03-27T14:46:41.188Z,98255.91
2018-03-27T14:49:10.665Z,98254.03
2018-03-27T14:51:40.313Z,98245.66
2018-03-27T14:54:10.266Z,98249.88
2018-03-27T14:56:39.927Z,98250.70
2018-03-27T14:59:09.101Z,98245.61
2018-03-27T15:01:38.301Z,98251.63
2018-03-27T15:04:07.749Z,98250.70
2018-03-27T15:06:36.998Z,98253.41
2018-03-27T15:09:07.437Z,98239.83
2018-03-27T15:11:36.841Z,98229.74
2018-03-27T15:14:06.041Z,98227.00
2018-03-27T15:16:35.177Z,98229.42
2018-03-27T15:19:04.870Z,98227.53
2018-03-27T15:21:34.163Z,98230.12
2018-03-27T15:24:04.163Z,98219.94
2018-03-27T15:26:33.509Z,98217.89
2018-03-27T15:29:02.703Z,98214.17
2018-03-27T15:31:31.914Z,98212.38
2018-03-27T15:34:01.018Z,98203.66
2018-03-27T15:36:30.259Z,98201.73
2018-03-27T15:38:59.703Z,98209.30
2018-03-27T15:41:29.049Z,98203.03
2018-03-27T15:43:58.149Z,98203.27
2018-03-27T15:46:27.262Z,98198.39
2018-03-27T15:48:56.440Z,98197.84
2018-03-27T15:51:26.055Z,98191.19
2018-03-27T15:53:55.437Z,98187.78
2018-03-27T15:56:29.536Z,98181.98
2018-03-27T15:58:59.885Z,98167.02
2018-03-27T16:01:29.170Z,98184.17
2018-03-27T16:03:58.608Z,98182.03
2018-03-27T16:06:27.802Z,98167.69
2018-03-27T16:08:57.522Z,98173.83
2018-03-27T16:11:26.788Z,98171.70
2018-03-27T16:13:56.828Z,98166.09
2018-03-27T16:16:26.185Z,98161.12
2018-03-27T16:18:55.949Z,98162.69
2018-03-27T16:21:25.224Z,98159.43
2018-03-27T16:23:54.765Z,98156.40
2018-03-27T16:26:24.058Z,98152.86
2018-03-27T16:28:53.666Z,98144.13
2018-03-27T16:31:22.884Z,98147.44
2018-03-27T16:33:52.942Z,98142.77
2018-03-27T16:36:22.089Z,98148.97
2018-03-27T16:38:51.246Z,98141.73
2018-03-27T16:41:20.374Z,98147.45
2018-03-27T16:43:49.776Z,98143.19
2018-03-27T16:46:19.267Z,98143.31
2018-03-27T16:48:48.441Z,98143.95
2018-03-27T16:51:17.861Z,98147.25
2018-03-27T16:53:47.494Z,98141.30
2018-03-27T16:56:16.898Z,98131.28
2018-03-27T16:58:46.429Z,98131.48
2018-03-27T17:01:16.313Z,98128.53
2018-03-27T17:03:45.824Z,98130.55
2018-03-27T17:06:15.590Z,98126.52
2018-03-27T17:08:45.210Z,98124.84
2018-03-27T17:11:14.609Z,98124.38
2018-03-27T17:13:44.274Z,98123.44
2018-03-27T17:16:13.825Z,98128.22
2018-03-27T17:18:43.350Z,98126.75
2018-03-27T17:21:12.598Z,98124.31
2018-03-27T17:23:44.022Z,98117.31
2018-03-27T17:26:16.424Z,98115.48
2018-03-27T17:28:46.041Z,98122.85
2018-03-27T17:31:15.167Z,98119.80
2018-03-27T17:33:44.301Z,98119.14
2018-03-27T17:36:14.401Z,98117.78
2018-03-27T17:38:43.662Z,98116.88
2018-03-27T17:41:13.158Z,98117.92
2018-03-27T17:43:42.765Z,98107.45
2018-03-27T17:46:11.962Z,98110.96
2018-03-27T17:48:41.201Z,98103.23
2018-03-27T17:51:10.776Z,98108.28
2018-03-27T17:53:40.065Z,98106.58
2018-03-27T17:56:09.195Z,98103.17
2018-03-27T17:58:38.857Z,98090.99
2018-03-27T18:01:08.099Z,98098.89
2018-03-27T18:03:37.332Z,98094.85
2018-03-27T18:06:07.144Z,98098.22
2018-03-27T18:08:36.302Z,98089.80
2018-03-27T18:11:05.969Z,98096.58
2018-03-27T18:13:35.391Z,98091.56
2018-03-27T18:16:04.869Z,98096.73
2018-03-27T18:18:35.562Z,98098.77
2018-03-27T18:21:06.990Z,98096.56
2018-03-27T18:23:38.163Z,98101.13
2018-03-27T18:26:08.565Z,98096.16
2018-03-27T18:28:40.271Z,98097.08
2018-03-27T18:31:12.719Z,98095.16
2018-03-27T18:33:45.162Z,98101.24
2018-03-27T18:36:17.559Z,98102.03
2018-03-27T18:38:47.717Z,98099.03
2018-03-27T18:41:18.542Z,98097.91
2018-03-27T18:43:49.836Z,98090.36
2018-03-27T18:46:20.817Z,98096.80
2018-03-27T18:48:52.760Z,98096.06
2018-03-27T18:51:21.967Z,98091.95
2018-03-27T18:53:51.387Z,98093.16
2018-03-27T18:56:20.697Z,98092.81
2018-03-27T18:58:49.961Z,98088.48
2018-03-27T19:01:19.461Z,98083.80
2018-03-27T19:03:48.640Z,98079.33
2018-03-27T19:06:17.897Z,98080.04
2018-03-27T19:08:47.573Z,98084.25
2018-03-27T19:11:16.989Z,98082.13
2018-03-27T19:13:46.318Z,98075.02
2018-03-27T19:16:16.096Z,98073.21
2018-03-27T19:18:45.287Z,98070.27
2018-03-27T19:21:15.202Z,98079.20
2018-03-27T19:23:44.828Z,98083.05
2018-03-27T19:26:14.209Z,98077.95
2018-03-27T19:28:43.944Z,98071.30
2018-03-27T19:31:13.877Z,98061.87
2018-03-27T19:33:43.033Z,98070.22
2018-03-27T19:36:12.520Z,98067.29
2018-03-27T19:38:42.525Z,98062.61
2018-03-27T19:41:11.755Z,98063.88
2018-03-27T19:43:40.996Z,98061.28
2018-03-27T19:46:10.496Z,98065.80
2018-03-27T19:48:39.679Z,98058.78
2018-03-27T19:51:09.274Z,98063.59
2018-03-27T19:53:38.538Z,98064.17
2018-03-27T19:56:08.190Z,98059.38
2018-03-27T19:58:37.340Z,98061.16
2018-03-27T20:01:06.917Z,98063.63
2018-03-27T20:03:36.060Z,98069.27
2018-03-27T20:06:05.812Z,98070.21
2018-03-27T20:08:35.655Z,98067.56
2018-03-27T20:11:06.377Z,98064.55
2018-03-27T20:13:35.735Z,98072.66
2018-03-27T20:16:04.932Z,98067.23
2018-03-27T20:18:34.601Z,98070.02
2018-03-27T20:21:04.478Z,98066.01
2018-03-27T20:23:34.007Z,98068.80
2018-03-27T20:26:03.605Z,98072.53
2018-03-27T20:28:33.316Z,98066.52
2018-03-27T20:31:03.811Z,98065.01
2018-03-27T20:33:33.756Z,98060.95
2018-03-27T20:36:03.028Z,98061.64
2018-03-27T20:38:32.272Z,98047.40
2018-03-27T20:41:01.854Z,98047.42
2018-03-27T20:43:31.018Z,98044.25
2018-03-27T20:46:00.321Z,98035.49
2018-03-27T20:48:29.822Z,98036.56
2018-03-27T20:50:59.239Z,98035.59
2018-03-27T20:53:28.664Z,98034.62
2018-03-27T20:55:58.066Z,98023.62
2018-03-27T20:58:27.190Z,98015.33
2018-03-27T21:00:56.394Z,98013.24
2018-03-27T21:03:26.412Z,98000.44
2018-03-27T21:05:56.131Z,97999.23
2018-03-27T21:08:25.265Z,97990.73
2018-03-27T21:10:54.680Z,97983.06
2018-03-27T21:13:23.797Z,97978.67
2018-03-27T21:15:53.033Z,97980.77
2018-03-27T21:18:22.719Z,97973.90
2018-03-27T21:20:52.021Z,97975.30
2018-03-27T21:23:21.638Z,97974.58
2018-03-27T21:25:51.060Z,97972.32
2018-03-27T21:28:20.228Z,97972.28
2018-03-27T21:30:49.387Z,97976.25
2018-03-27T21:33:18.873Z,97973.71
2018-03-27T21:35:48.009Z,97974.16
2018-03-27T21:38:17.482Z,97973.95
2018-03-27T21:40:46.713Z,97972.86
2018-03-27T21:43:15.877Z,97969.92
2018-03-27T21:45:45.063Z,97974.62
2018-03-27T21:48:14.362Z,97970.64
2018-03-27T21:50:44.400Z,97972.18
2018-03-27T21:53:13.886Z,97963.59
2018-03-27T21:55:43.044Z,97961.12
2018-03-27T21:58:13.399Z,97959.16
2018-03-27T22:00:44.024Z,97955.09
2018-03-27T22:03:17.911Z,97959.77
2018-03-27T22:05:47.179Z,97956.86
2018-03-27T22:08:16.488Z,97955.48
2018-03-27T22:10:46.069Z,97950.41
2018-03-27T22:13:15.793Z,97956.52
2018-03-27T22:15:45.455Z,97950.08
2018-03-27T22:18:14.784Z,97951.53
2018-03-27T22:20:46.891Z,97944.92
2018-03-27T22:23:18.527Z,97939.64
2018-03-27T22:25:50.659Z,97936.69
2018-03-27T22:28:22.726Z,97938.94
2018-03-27T22:30:52.143Z,97934.48
2018-03-27T22:33:21.551Z,97937.61
2018-03-27T22:35:52.959Z,97930.22
2018-03-27T22:38:24.586Z,97919.16
2018-03-27T22:40:54.311Z,97920.92
2018-03-27T22:43:24.064Z,97918.77
2018-03-27T22:45:53.864Z,97907.38
2018-03-27T22:48:23.519Z,97917.82
2018-03-27T22:50:52.820Z,97903.62
2018-03-27T22:53:22.234Z,97907.02
2018-03-27T22:55:51.564Z,97898.52
2018-03-27T22:58:22.087Z,97894.56
2018-03-27T23:00:51.466Z,97882.03
2018-03-27T23:03:22.509Z,97885.49
2018-03-27T23:05:52.405Z,97877.84
2018-03-27T23:08:22.631Z,97877.31
2018-03-27T23:10:52.385Z,97874.02
2018-03-27T23:13:25.888Z,97873.80
2018-03-27T23:15:55.352Z,97871.06
2018-03-27T23:18:25.300Z,97870.66
2018-03-27T23:20:54.622Z,97870.39
2018-03-27T23:23:23.830Z,97864.67
2018-03-27T23:25:55.417Z,97857.34
2018-03-27T23:28:24.885Z,97856.21
2018-03-27T23:30:55.168Z,97859.16
2018-03-27T23:33:25.116Z,97846.13
2018-03-27T23:35:54.825Z,97844.66
2018-03-27T23:38:24.830Z,97842.93
2018-03-27T23:40:54.950Z,97836.67
2018-03-27T23:43:24.374Z,97834.55
2018-03-27T23:45:53.586Z,97837.98
2018-03-27T23:48:23.289Z,97840.91
2018-03-27T23:50:52.994Z,97833.58
2018-03-27T23:53:23.190Z,97838.79
2018-03-27T23:55:52.297Z,97839.62
2018-03-27T23:58:21.395Z,97836.22
